Main page
METAR-TAF:

METAR-TAF

Airports :

Polokwane International Airport

Polokwane, South Africa

latitude: 23-50-43S, longitude: 29-27-31E, elevation: 1242 m

Current weather observation

The report was made 53 minutes ago, at 20:00 UTC
Wind 4 kt from the South/Southwest
Temperature 8°C
Humidity 66%
Pressure 1024 hPa

METAR: FAPP 182000Z AUTO 20004KT //// // ////// 08/02 Q1024

Time: 22:53 (20:53 UTC)

Forecast

The report was made 11 hours and 53 minutes ago, at 09:00 UTC
Forecast valid from 18 at 10 UTC to 18 at 18 UTC
Wind 9 kt from the West/Southwest
Visibility 10 km or more
no clouds below 1500 m and no cumulonimbus

TAF: FAPP 180900Z 1810/1818 24009KT CAVOK TX23/1813Z TN14/1818Z

Weather observations and forecasts of more than 4000 airports (METAR and TAF reports).

The available stations are represented by yellow and red dots on the map.

Hover mouse over dot to see the name of the station.

Then click to see weather observations and forecasts.

To change the map : click on the green buttons with a black cross to zoom in, on the green button with a dash to zoom out, or on the green arrows for adjacent maps.


METAR-TAF: